createdAt,value
2018-07-11T00:01:05.376Z,101101.78
2018-07-11T00:03:44.480Z,101103.57
2018-07-11T00:06:13.610Z,101098.88
2018-07-11T00:08:42.159Z,101100.61
2018-07-11T00:11:11.592Z,101095.55
2018-07-11T00:13:41.197Z,101099.47
2018-07-11T00:16:12.592Z,101091.02
2018-07-11T00:18:41.216Z,101090.53
2018-07-11T00:21:10.164Z,101095.80
2018-07-11T00:23:38.854Z,101087.98
2018-07-11T00:26:08.605Z,101092.26
2018-07-11T00:28:37.185Z,101090.09
2018-07-11T00:31:06.057Z,101085.83
2018-07-11T00:33:34.608Z,101085.79
2018-07-11T00:36:03.287Z,101087.56
2018-07-11T00:38:32.233Z,101088.86
2018-07-11T00:41:01.397Z,101092.31
2018-07-11T00:43:32.421Z,101088.91
2018-07-11T00:46:01.462Z,101089.34
2018-07-11T00:48:30.165Z,101088.48
2018-07-11T00:50:59.531Z,101091.92
2018-07-11T00:53:31.407Z,101092.41
2018-07-11T00:56:00.653Z,101085.52
2018-07-11T00:58:31.346Z,101083.46
2018-07-11T01:01:15.450Z,101084.32
2018-07-11T01:03:49.783Z,101082.70
2018-07-11T01:06:18.926Z,101084.42
2018-07-11T01:08:48.637Z,101076.66
2018-07-11T01:11:17.895Z,101081.51
2018-07-11T01:13:47.809Z,101081.13
2018-07-11T01:16:18.396Z,101087.20
2018-07-11T01:19:08.037Z,101088.59
2018-07-11T01:21:37.269Z,101085.63
2018-07-11T01:24:05.836Z,101084.33
2018-07-11T01:26:39.440Z,101088.69
2018-07-11T01:29:08.490Z,101080.07
2018-07-11T01:31:37.671Z,101077.95
2018-07-11T01:34:06.322Z,101078.39
2018-07-11T01:36:34.796Z,101080.55
2018-07-11T01:39:03.684Z,101084.42
2018-07-11T01:41:32.311Z,101079.16
2018-07-11T01:44:01.921Z,101071.83
2018-07-11T01:46:39.787Z,101076.09
2018-07-11T01:49:08.389Z,101073.50
2018-07-11T01:52:45.677Z,101073.89
2018-07-11T01:55:14.637Z,101067.37
2018-07-11T01:57:43.283Z,101072.92
2018-07-11T02:00:12.068Z,101068.62
2018-07-11T02:02:40.718Z,101065.65
2018-07-11T02:05:09.357Z,101072.55
2018-07-11T02:07:38.751Z,101063.02
2018-07-11T02:10:07.419Z,101060.43
2018-07-11T02:12:36.615Z,101061.30
2018-07-11T02:15:06.136Z,101060.56
2018-07-11T02:17:37.063Z,101057.98
2018-07-11T02:20:07.527Z,101056.73
2018-07-11T02:22:37.954Z,101055.50
2018-07-11T02:25:06.493Z,101057.56
2018-07-11T02:27:35.232Z,101049.80
2018-07-11T02:30:04.229Z,101046.34
2018-07-11T02:32:33.694Z,101047.16
2018-07-11T02:35:02.339Z,101039.39
2018-07-11T02:37:31.008Z,101048.35
2018-07-11T02:39:59.626Z,101040.16
2018-07-11T02:42:28.377Z,101046.56
2018-07-11T02:44:56.930Z,101035.80
2018-07-11T02:47:30.760Z,101041.39
2018-07-11T02:49:59.274Z,101040.92
2018-07-11T02:52:27.959Z,101043.50
2018-07-11T02:54:57.371Z,101036.61
2018-07-11T02:57:26.113Z,101042.64
2018-07-11T02:59:54.647Z,101042.31
2018-07-11T03:02:23.156Z,101044.09
2018-07-11T03:04:51.731Z,101050.17
2018-07-11T03:07:20.265Z,101047.26
2018-07-11T03:09:48.823Z,101046.34
2018-07-11T03:12:17.354Z,101045.44
2018-07-11T03:14:49.662Z,101045.96
2018-07-11T03:17:18.188Z,101042.09
2018-07-11T03:19:46.752Z,101048.98
2018-07-11T03:22:15.798Z,101040.80
2018-07-11T03:24:44.500Z,101042.47
2018-07-11T03:27:13.339Z,101041.56
2018-07-11T03:29:41.981Z,101040.69
2018-07-11T03:32:10.729Z,101038.59
2018-07-11T03:34:39.207Z,101047.75
2018-07-11T03:37:07.992Z,101050.37
2018-07-11T03:39:36.617Z,101039.17
2018-07-11T03:42:05.329Z,101048.31
2018-07-11T03:44:33.957Z,101046.59
2018-07-11T03:47:02.654Z,101050.41
2018-07-11T03:49:31.375Z,101047.93
2018-07-11T03:51:59.946Z,101042.77
2018-07-11T03:54:28.509Z,101050.17
2018-07-11T03:56:57.385Z,101050.22
2018-07-11T03:59:25.995Z,101059.28
2018-07-11T04:01:55.339Z,101064.48
2018-07-11T04:04:23.998Z,101064.45
2018-07-11T04:06:52.697Z,101063.63
2018-07-11T04:09:21.345Z,101067.08
2018-07-11T04:11:50.079Z,101069.23
2018-07-11T04:14:18.760Z,101069.31
2018-07-11T04:16:47.503Z,101073.22
2018-07-11T04:19:16.102Z,101080.08
2018-07-11T04:21:44.949Z,101075.26
2018-07-11T04:24:14.163Z,101076.50
2018-07-11T04:26:42.971Z,101079.47
2018-07-11T04:29:12.017Z,101072.53
2018-07-11T04:31:40.586Z,101079.42
2018-07-11T04:34:09.546Z,101082.83
2018-07-11T04:36:38.178Z,101081.50
2018-07-11T04:39:06.618Z,101083.61
2018-07-11T04:41:35.136Z,101083.56
2018-07-11T04:44:04.341Z,101082.21
2018-07-11T04:46:32.930Z,101091.19
2018-07-11T04:49:01.891Z,101089.45
2018-07-11T04:51:30.582Z,101083.04
2018-07-11T04:53:59.233Z,101083.91
2018-07-11T04:56:28.008Z,101083.38
2018-07-11T04:58:57.393Z,101082.60
2018-07-11T05:01:25.862Z,101087.73
2018-07-11T05:03:54.441Z,101089.94
2018-07-11T05:06:23.360Z,101085.25
2018-07-11T05:08:52.042Z,101080.07
2018-07-11T05:11:20.580Z,101087.83
2018-07-11T05:13:49.126Z,101081.36
2018-07-11T05:16:17.738Z,101084.28
2018-07-11T05:18:47.023Z,101086.39
2018-07-11T05:21:16.487Z,101086.91
2018-07-11T05:23:45.361Z,101082.08
2018-07-11T05:26:14.173Z,101087.25
2018-07-11T05:29:12.267Z,101089.02
2018-07-11T05:31:40.891Z,101085.61
2018-07-11T05:34:10.304Z,101077.48
2018-07-11T05:36:38.738Z,101076.14
2018-07-11T05:39:08.054Z,101074.50
2018-07-11T05:41:36.569Z,101070.05
2018-07-11T05:44:05.255Z,101072.45
2018-07-11T05:46:33.843Z,101074.12
2018-07-11T05:49:02.788Z,101076.33
2018-07-11T05:51:31.448Z,101077.63
2018-07-11T05:54:00.253Z,101069.44
2018-07-11T05:56:29.146Z,101064.20
2018-07-11T05:58:57.997Z,101058.13
2018-07-11T06:01:26.577Z,101063.67
2018-07-11T06:03:55.121Z,101060.32
2018-07-11T06:06:23.718Z,101061.56
2018-07-11T06:08:52.301Z,101068.03
2018-07-11T06:11:22.381Z,101071.01
2018-07-11T06:13:51.815Z,101063.71
2018-07-11T06:16:21.310Z,101063.18
2018-07-11T06:18:50.691Z,101066.16
2018-07-11T06:21:21.076Z,101076.98
2018-07-11T06:23:52.006Z,101081.36
2018-07-11T06:26:21.110Z,101077.05
2018-07-11T06:28:50.222Z,101076.12
2018-07-11T06:31:18.863Z,101088.95
2018-07-11T06:33:47.645Z,101088.05
2018-07-11T06:36:16.557Z,101091.55
2018-07-11T06:38:45.181Z,101092.08
2018-07-11T06:41:13.806Z,101094.28
2018-07-11T06:43:42.405Z,101098.60
2018-07-11T06:46:11.926Z,101099.80
2018-07-11T06:48:40.590Z,101103.19
2018-07-11T06:51:09.659Z,101103.52
2018-07-11T06:53:38.310Z,101102.17
2018-07-11T06:56:07.008Z,101097.38
2018-07-11T06:58:35.465Z,101093.49
2018-07-11T07:01:04.871Z,101097.00
2018-07-11T07:03:33.578Z,101096.12
2018-07-11T07:06:02.164Z,101094.30
2018-07-11T07:08:30.870Z,101091.70
2018-07-11T07:11:00.449Z,101095.59
2018-07-11T07:13:30.948Z,101085.30
2018-07-11T07:15:59.563Z,101080.55
2018-07-11T07:18:39.436Z,101075.73
2018-07-11T07:21:07.952Z,101072.45
2018-07-11T07:23:36.647Z,101067.13
2018-07-11T07:26:05.641Z,101064.47
2018-07-11T07:28:34.588Z,101060.03
2018-07-11T07:31:03.859Z,101060.14
2018-07-11T07:33:34.352Z,101065.34
2018-07-11T07:36:03.970Z,101065.89
2018-07-11T07:38:39.996Z,101058.14
2018-07-11T07:41:10.452Z,101054.15
2018-07-11T07:43:42.239Z,101055.78
2018-07-11T07:46:10.868Z,101052.17
2018-07-11T07:48:39.824Z,101058.03
2018-07-11T07:51:08.326Z,101053.36
2018-07-11T07:53:36.966Z,101055.16
2018-07-11T07:56:07.027Z,101052.19
2018-07-11T07:58:36.662Z,101050.27
2018-07-11T08:01:05.258Z,101046.97
2018-07-11T08:03:35.632Z,101050.60
2018-07-11T08:06:04.253Z,101048.20
2018-07-11T08:08:33.897Z,101043.55
2018-07-11T08:11:02.585Z,101050.08
2018-07-11T08:13:31.129Z,101042.77
2018-07-11T08:15:59.708Z,101046.53
2018-07-11T08:18:29.088Z,101045.55
2018-07-11T08:20:57.675Z,101046.23
2018-07-11T08:23:39.950Z,101045.25
2018-07-11T08:26:19.804Z,101037.90
2018-07-11T08:29:03.925Z,101036.95
2018-07-11T08:31:44.107Z,101038.94
2018-07-11T08:34:57.584Z,101045.78
2018-07-11T08:37:35.129Z,101039.42
2018-07-11T08:40:19.809Z,101038.86
2018-07-11T08:43:29.136Z,101041.69
2018-07-11T08:49:11.150Z,101034.70
2018-07-11T08:52:02.158Z,101024.59
2018-07-11T08:54:41.938Z,101019.77
2018-07-11T08:58:22.227Z,101026.18
2018-07-11T09:01:05.471Z,101030.91
2018-07-11T09:04:41.047Z,101033.08
2018-07-11T09:07:16.411Z,101027.75
2018-07-11T09:10:00.861Z,101027.70
2018-07-11T09:13:00.531Z,101020.84
2018-07-11T09:16:16.247Z,101023.02
2018-07-11T09:19:51.873Z,101020.40
2018-07-11T09:24:41.078Z,101016.81
2018-07-11T09:27:10.348Z,101007.45
2018-07-11T09:29:39.814Z,101004.78
2018-07-11T09:32:08.393Z,101007.88
2018-07-11T09:34:36.911Z,101005.79
2018-07-11T09:37:05.455Z,101002.84
2018-07-11T09:39:34.017Z,101004.58
2018-07-11T09:42:04.514Z,101004.20
2018-07-11T09:44:33.800Z,101004.72
2018-07-11T09:47:06.570Z,101003.77
2018-07-11T09:49:36.318Z,101001.97
2018-07-11T09:52:05.254Z,100994.55
2018-07-11T09:54:33.864Z,100996.13
2018-07-11T09:57:02.557Z,100998.64
2018-07-11T09:59:31.711Z,101001.33
2018-07-11T10:02:00.340Z,100995.41
2018-07-11T10:04:29.909Z,100997.02
2018-07-11T10:06:59.312Z,100998.72
2018-07-11T10:09:29.982Z,101002.09
2018-07-11T10:11:58.764Z,101000.38
2018-07-11T10:14:27.539Z,101005.50
2018-07-11T10:16:56.124Z,101002.47
2018-07-11T10:19:25.183Z,101001.61
2018-07-11T10:21:53.818Z,100997.78
2018-07-11T10:24:22.449Z,101003.13
2018-07-11T10:26:51.811Z,101004.42
2018-07-11T10:29:20.917Z,101008.59
2018-07-11T10:31:49.377Z,101006.77
2018-07-11T10:34:18.341Z,101011.17
2018-07-11T10:36:47.606Z,101009.02
2018-07-11T10:39:16.190Z,101007.28
2018-07-11T10:41:44.891Z,101009.75
2018-07-11T10:44:13.574Z,101002.45
2018-07-11T10:46:42.143Z,101009.02
2018-07-11T10:49:10.810Z,101009.37
2018-07-11T10:51:39.823Z,101005.83
2018-07-11T10:54:08.517Z,101005.76
2018-07-11T10:56:37.128Z,101014.67
2018-07-11T10:59:05.935Z,101015.05
2018-07-11T11:01:34.557Z,101006.34
2018-07-11T11:04:03.050Z,101006.77
2018-07-11T11:06:31.993Z,101005.47
2018-07-11T11:09:00.671Z,101001.10
2018-07-11T11:11:29.519Z,100993.31
2018-07-11T11:13:58.693Z,100987.33
2018-07-11T11:16:27.286Z,100990.36
2018-07-11T11:18:55.879Z,100991.34
2018-07-11T11:22:54.695Z,100985.80
2018-07-11T11:25:23.717Z,100975.48
2018-07-11T11:27:52.386Z,100980.41
2018-07-11T11:30:21.143Z,100980.66
2018-07-11T11:32:50.061Z,100980.61
2018-07-11T11:35:18.720Z,100974.11
2018-07-11T11:37:47.586Z,100976.98
2018-07-11T11:40:16.312Z,100977.91
2018-07-11T11:42:45.855Z,100976.95
2018-07-11T11:45:15.436Z,100977.52
2018-07-11T11:47:44.518Z,100982.84
2018-07-11T11:50:13.160Z,100978.63
2018-07-11T11:52:41.707Z,100983.77
2018-07-11T11:55:10.283Z,100981.98
2018-07-11T11:57:38.955Z,100980.78
2018-07-11T12:00:07.787Z,100980.97
2018-07-11T12:02:36.385Z,100978.18
2018-07-11T12:05:04.983Z,100977.86
2018-07-11T12:07:33.530Z,100980.78
2018-07-11T12:10:02.182Z,100979.44
2018-07-11T12:12:30.977Z,100978.94
2018-07-11T12:14:59.878Z,100987.50
2018-07-11T12:17:28.542Z,100985.51
2018-07-11T12:19:57.097Z,100988.91
2018-07-11T12:22:26.705Z,100990.39
2018-07-11T12:24:55.467Z,100981.70
2018-07-11T12:27:25.230Z,100983.13
2018-07-11T12:29:54.833Z,100979.48
2018-07-11T12:32:23.702Z,100991.91
2018-07-11T12:34:52.509Z,100986.80
2018-07-11T12:37:23.096Z,100988.11
2018-07-11T12:39:51.996Z,100991.16
2018-07-11T12:42:21.612Z,100982.46
2018-07-11T12:44:51.083Z,100980.56
2018-07-11T12:47:24.937Z,100973.95
2018-07-11T12:49:53.483Z,100972.74
2018-07-11T12:52:23.356Z,100972.99
2018-07-11T12:54:52.568Z,100981.09
2018-07-11T12:57:21.639Z,100981.77
2018-07-11T12:59:50.694Z,100970.81
2018-07-11T13:02:19.528Z,100969.38
2018-07-11T13:04:48.425Z,100970.14
2018-07-11T13:07:17.096Z,100969.19
2018-07-11T13:09:45.856Z,100972.67
2018-07-11T13:12:14.540Z,100972.64
2018-07-11T13:14:43.213Z,100969.98
2018-07-11T13:17:11.806Z,100972.74
2018-07-11T13:19:40.539Z,100970.58
2018-07-11T13:22:09.896Z,100968.28
2018-07-11T13:24:39.095Z,100963.92
2018-07-11T13:27:08.336Z,100965.79
2018-07-11T13:29:37.030Z,100962.78
2018-07-11T13:32:05.788Z,100957.17
2018-07-11T13:34:35.236Z,100958.17
2018-07-11T13:37:04.137Z,100952.86
2018-07-11T13:39:32.904Z,100957.23
2018-07-11T13:42:01.735Z,100954.32
2018-07-11T13:44:31.241Z,100955.20
2018-07-11T13:46:59.983Z,100954.27
2018-07-11T13:49:29.120Z,100952.11
2018-07-11T13:51:57.830Z,100949.84
2018-07-11T13:54:28.705Z,100955.03
2018-07-11T13:56:57.545Z,100955.63
2018-07-11T13:59:26.223Z,100949.70
2018-07-11T14:01:55.070Z,100955.32
2018-07-11T14:04:23.708Z,100950.81
2018-07-11T14:06:52.481Z,100948.50
2018-07-11T14:09:21.180Z,100943.20
2018-07-11T14:11:49.992Z,100943.18
2018-07-11T14:14:18.661Z,100946.91
2018-07-11T14:16:47.367Z,100946.59
2018-07-11T14:19:15.972Z,100952.69
2018-07-11T14:21:44.943Z,100951.66
2018-07-11T14:24:15.341Z,100959.91
2018-07-11T14:26:44.714Z,100946.95
2018-07-11T14:29:13.666Z,100950.42
2018-07-11T14:31:42.987Z,100952.39
2018-07-11T14:34:13.861Z,100945.30
2018-07-11T14:36:43.437Z,100943.32
2018-07-11T14:39:13.505Z,100940.09
2018-07-11T14:41:42.106Z,100941.39
2018-07-11T14:44:11.750Z,100945.56
2018-07-11T14:46:40.338Z,100948.17
2018-07-11T14:49:09.115Z,100942.89
2018-07-11T14:51:38.606Z,100937.75
2018-07-11T14:54:09.234Z,100938.13
2018-07-11T14:56:38.377Z,100941.55
2018-07-11T14:59:08.086Z,100939.17
2018-07-11T15:01:37.694Z,100947.77
2018-07-11T15:04:07.692Z,100949.89
2018-07-11T15:06:38.129Z,100952.39
2018-07-11T15:09:09.035Z,100948.70
2018-07-11T15:11:38.751Z,100947.88
2018-07-11T15:14:09.343Z,100941.33
2018-07-11T15:16:39.501Z,100941.47
2018-07-11T15:19:08.732Z,100937.27
2018-07-11T15:21:37.968Z,100939.98
2018-07-11T15:24:07.038Z,100934.98
2018-07-11T15:26:36.840Z,100929.06
2018-07-11T15:29:06.550Z,100931.36
2018-07-11T15:31:35.467Z,100929.72
2018-07-11T15:34:05.635Z,100935.79
2018-07-11T15:36:34.722Z,100934.90
2018-07-11T15:39:05.942Z,100921.87
2018-07-11T15:41:35.929Z,100928.31
2018-07-11T15:44:07.140Z,100925.61
2018-07-11T15:46:36.492Z,100927.66
2018-07-11T15:49:05.746Z,100929.41
2018-07-11T15:51:37.578Z,100926.66
2018-07-11T15:54:06.893Z,100920.96
2018-07-11T15:56:35.877Z,100928.06
2018-07-11T15:59:08.581Z,100921.14
2018-07-11T16:01:45.836Z,100919.83
2018-07-11T16:04:20.279Z,100922.70
2018-07-11T16:06:48.907Z,100926.88
2018-07-11T16:09:17.957Z,100932.77
2018-07-11T16:11:46.711Z,100933.29
2018-07-11T16:14:15.977Z,100935.08
2018-07-11T16:16:44.536Z,100932.06
2018-07-11T16:19:13.307Z,100933.84
2018-07-11T16:21:46.653Z,100936.82
2018-07-11T16:24:15.316Z,100937.82
2018-07-11T16:26:43.866Z,100938.33
2018-07-11T16:29:12.472Z,100943.40
2018-07-11T16:31:41.645Z,100942.89
2018-07-11T16:34:10.222Z,100948.05
2018-07-11T16:36:39.869Z,100949.39
2018-07-11T16:39:09.717Z,100945.19
2018-07-11T16:41:39.192Z,100948.61
2018-07-11T16:44:13.240Z,100955.49
2018-07-11T16:46:42.773Z,100957.58
2018-07-11T16:49:11.394Z,100957.92
2018-07-11T16:51:40.346Z,100956.28
2018-07-11T16:54:09.396Z,100956.11
2018-07-11T16:56:38.602Z,100966.56
2018-07-11T16:59:07.524Z,100976.13
2018-07-11T17:01:44.496Z,100971.29
2018-07-11T17:04:16.119Z,100977.19
2018-07-11T17:06:45.032Z,100975.95
2018-07-11T17:09:14.031Z,100976.80
2018-07-11T17:11:42.657Z,100975.54
2018-07-11T17:14:11.831Z,100976.13
2018-07-11T17:16:45.896Z,100982.49
2018-07-11T17:19:23.980Z,100975.23
2018-07-11T17:21:53.526Z,100983.48
2018-07-11T17:24:22.958Z,100981.88
2018-07-11T17:26:55.596Z,100984.89
2018-07-11T17:29:28.931Z,100986.70
2018-07-11T17:32:06.585Z,100985.64
2018-07-11T17:34:37.692Z,100985.44
2018-07-11T17:37:07.875Z,100984.86
2018-07-11T17:40:10.461Z,100983.14
2018-07-11T17:42:41.315Z,100989.95
2018-07-11T17:45:13.185Z,100993.21
2018-07-11T17:48:08.717Z,100996.73
2018-07-11T17:50:38.926Z,100993.86
2018-07-11T17:53:17.645Z,100995.98
2018-07-11T17:55:56.515Z,101000.09
2018-07-11T17:58:38.479Z,101004.13
2018-07-11T18:01:07.788Z,101003.36
2018-07-11T18:03:42.023Z,101008.22
2018-07-11T18:06:23.260Z,101003.91
2018-07-11T18:09:16.107Z,101009.72
2018-07-11T18:11:54.416Z,101003.18
2018-07-11T18:15:31.952Z,101010.13
2018-07-11T18:18:11.635Z,101008.92
2018-07-11T18:20:52.125Z,101008.92
2018-07-11T18:24:37.786Z,101002.42
2018-07-11T18:28:17.074Z,101016.28
2018-07-11T18:30:57.466Z,101015.81
2018-07-11T18:36:11.201Z,101009.27
2018-07-11T18:38:55.191Z,101010.67
2018-07-11T18:42:29.759Z,101009.94
2018-07-11T18:45:04.318Z,101014.80
2018-07-11T18:47:40.675Z,101011.84
2018-07-11T18:52:30.010Z,101010.16
2018-07-11T18:55:12.128Z,101020.97
2018-07-11T18:59:53.878Z,101023.66
2018-07-11T19:02:34.357Z,101014.33
2018-07-11T19:05:39.242Z,101006.61
2018-07-11T19:08:45.528Z,101002.83
2018-07-11T19:11:23.338Z,100998.16
2018-07-11T19:13:54.175Z,101000.33
2018-07-11T19:16:34.002Z,100996.55
2018-07-11T19:19:11.644Z,100997.61
2018-07-11T19:22:02.312Z,100998.99
2018-07-11T19:24:42.147Z,101000.41
2018-07-11T19:27:23.751Z,100997.48
2018-07-11T19:30:12.670Z,101005.63
2018-07-11T19:33:49.927Z,101004.84
2018-07-11T19:36:35.797Z,101011.06
2018-07-11T19:39:09.966Z,101009.35
2018-07-11T19:41:51.282Z,101015.79
2018-07-11T19:44:44.778Z,101017.17
2018-07-11T19:48:29.838Z,101023.75
2018-07-11T19:51:08.951Z,101022.55
2018-07-11T19:53:47.098Z,101027.30
2018-07-11T19:56:34.134Z,101027.81
2018-07-11T19:59:04.137Z,101016.65
2018-07-11T20:01:32.984Z,101014.05
2018-07-11T20:04:03.013Z,101014.83
2018-07-11T20:06:33.699Z,101014.05
2018-07-11T20:09:04.868Z,101013.25
2018-07-11T20:11:33.558Z,101015.02
2018-07-11T20:14:02.625Z,101016.40
2018-07-11T20:16:31.256Z,101019.00
2018-07-11T20:19:00.552Z,101007.47
2018-07-11T20:21:31.222Z,101006.25
2018-07-11T20:24:00.030Z,101010.62
2018-07-11T20:26:29.556Z,101009.32
2018-07-11T20:28:58.517Z,101006.72
2018-07-11T20:31:27.189Z,101005.86
2018-07-11T20:33:55.783Z,101011.12
2018-07-11T20:36:24.581Z,101012.83
2018-07-11T20:38:54.174Z,101016.75
2018-07-11T20:41:22.919Z,101011.64
2018-07-11T20:43:53.514Z,101012.96
2018-07-11T20:46:23.205Z,101011.74
2018-07-11T20:48:52.076Z,101020.75
2018-07-11T20:51:20.816Z,101033.37
2018-07-11T20:53:49.572Z,101033.32
2018-07-11T20:56:18.197Z,101039.34
2018-07-11T20:58:57.917Z,101035.14
2018-07-11T21:01:38.411Z,101039.95
2018-07-11T21:05:18.862Z,101042.98
2018-07-11T21:10:04.236Z,101046.87
2018-07-11T21:12:46.205Z,101043.92
2018-07-11T21:15:41.701Z,101045.73
2018-07-11T21:19:19.556Z,101048.00
2018-07-11T21:21:48.192Z,101055.96
2018-07-11T21:24:17.978Z,101060.81
2018-07-11T21:26:47.574Z,101058.80
2018-07-11T21:29:17.857Z,101059.75
2018-07-11T21:31:46.996Z,101062.20
2018-07-11T21:34:15.558Z,101064.11
2018-07-11T21:36:44.684Z,101059.27
2018-07-11T21:39:13.839Z,101062.73
2018-07-11T21:41:43.772Z,101067.86
2018-07-11T21:44:13.638Z,101064.37
2018-07-11T21:46:42.868Z,101062.32
2018-07-11T21:49:11.480Z,101064.27
2018-07-11T21:51:40.165Z,101063.84
2018-07-11T21:54:09.446Z,101066.53
2018-07-11T21:56:38.078Z,101068.77
2018-07-11T21:59:06.632Z,101073.95
2018-07-11T22:01:35.204Z,101071.89
2018-07-11T22:04:03.881Z,101078.00
2018-07-11T22:06:32.370Z,101078.03
2018-07-11T22:09:01.998Z,101079.45
2018-07-11T22:11:31.464Z,101078.62
2018-07-11T22:14:01.687Z,101084.75
2018-07-11T22:16:31.622Z,101097.36
2018-07-11T22:19:00.169Z,101104.86
2018-07-11T22:21:27.558Z,101108.75
2018-07-11T22:23:54.961Z,101112.14
2018-07-11T22:26:23.270Z,101119.40
2018-07-11T22:28:50.576Z,101121.09
2018-07-11T22:31:17.837Z,101115.00
2018-07-11T22:33:45.200Z,101111.91
2018-07-11T22:36:12.555Z,101103.67
2018-07-11T22:38:39.879Z,101101.95
2018-07-11T22:41:07.178Z,101095.89
2018-07-11T22:43:35.416Z,101098.78
2018-07-11T22:46:03.368Z,101104.69
2018-07-11T22:48:30.632Z,101103.37
2018-07-11T22:50:57.907Z,101097.69
2018-07-11T22:53:25.211Z,101109.34
2018-07-11T22:55:52.565Z,101107.53
2018-07-11T22:58:20.372Z,101104.84
2018-07-11T23:00:48.528Z,101105.66
2018-07-11T23:03:16.634Z,101111.21
2018-07-11T23:05:44.017Z,101109.41
2018-07-11T23:08:12.055Z,101099.85
2018-07-11T23:10:39.350Z,101092.86
2018-07-11T23:13:07.134Z,101094.68
2018-07-11T23:15:34.528Z,101088.61
2018-07-11T23:18:01.824Z,101093.36
2018-07-11T23:20:29.089Z,101090.27
2018-07-11T23:22:57.188Z,101090.27
2018-07-11T23:25:24.897Z,101093.70
2018-07-11T23:27:52.455Z,101093.36
2018-07-11T23:30:19.796Z,101093.78
2018-07-11T23:32:48.365Z,101088.97
2018-07-11T23:35:15.621Z,101100.27
2018-07-11T23:37:42.944Z,101106.42
2018-07-11T23:40:10.248Z,101098.21
2018-07-11T23:42:38.332Z,101089.14
2018-07-11T23:45:05.636Z,101095.20
2018-07-11T23:47:33.031Z,101103.41
2018-07-11T23:50:00.319Z,101103.38
2018-07-11T23:52:27.605Z,101097.67
2018-07-11T23:54:54.872Z,101097.27
2018-07-11T23:57:22.189Z,101092.50
2018-07-11T23:59:49.585Z,101084.69
